sensor_id;sensor_type;location;lat;lon;timestamp;P1;durP1;ratioP1;P2;durP2;ratioP2
11663;SDS011;72375;59.302;18.204;2024-02-28T00:01:21;4.93;;;3.13;;
11663;SDS011;72375;59.302;18.204;2024-02-28T00:04:07;4.07;;;3.30;;
11663;SDS011;72375;59.302;18.204;2024-02-28T00:06:52;4.73;;;3.20;;
11663;SDS011;72375;59.302;18.204;2024-02-28T00:09:38;4.07;;;3.30;;
11663;SDS011;72375;59.302;18.204;2024-02-28T00:12:24;3.97;;;3.17;;
11663;SDS011;72375;59.302;18.204;2024-02-28T00:15:10;4.90;;;3.37;;
11663;SDS011;72375;59.302;18.204;2024-02-28T00:17:57;3.50;;;3.10;;
11663;SDS011;72375;59.302;18.204;2024-02-28T00:20:43;3.53;;;2.97;;
11663;SDS011;72375;59.302;18.204;2024-02-28T00:23:29;3.40;;;2.70;;
11663;SDS011;72375;59.302;18.204;2024-02-28T00:26:16;3.07;;;2.70;;
11663;SDS011;72375;59.302;18.204;2024-02-28T00:29:01;4.60;;;3.10;;
11663;SDS011;72375;59.302;18.204;2024-02-28T00:31:48;4.30;;;3.17;;
11663;SDS011;72375;59.302;18.204;2024-02-28T00:34:35;3.80;;;3.27;;
11663;SDS011;72375;59.302;18.204;2024-02-28T00:37:20;2.87;;;2.37;;
11663;SDS011;72375;59.302;18.204;2024-02-28T00:40:08;3.43;;;2.87;;
11663;SDS011;72375;59.302;18.204;2024-02-28T00:42:54;4.00;;;2.97;;
11663;SDS011;72375;59.302;18.204;2024-02-28T00:45:40;3.80;;;3.00;;
11663;SDS011;72375;59.302;18.204;2024-02-28T00:48:26;3.77;;;2.90;;
11663;SDS011;72375;59.302;18.204;2024-02-28T00:51:13;2.97;;;2.67;;
11663;SDS011;72375;59.302;18.204;2024-02-28T00:53:58;3.63;;;2.83;;
11663;SDS011;72375;59.302;18.204;2024-02-28T00:56:44;3.03;;;2.67;;
11663;SDS011;72375;59.302;18.204;2024-02-28T00:59:30;4.00;;;2.57;;
11663;SDS011;72375;59.302;18.204;2024-02-28T01:02:15;3.33;;;2.87;;
11663;SDS011;72375;59.302;18.204;2024-02-28T01:05:01;3.73;;;3.33;;
11663;SDS011;72375;59.302;18.204;2024-02-28T01:07:48;4.13;;;2.80;;
11663;SDS011;72375;59.302;18.204;2024-02-28T01:10:34;3.23;;;2.50;;
11663;SDS011;72375;59.302;18.204;2024-02-28T01:13:20;3.53;;;2.83;;
11663;SDS011;72375;59.302;18.204;2024-02-28T01:16:07;3.13;;;2.67;;
11663;SDS011;72375;59.302;18.204;2024-02-28T01:18:52;3.60;;;2.90;;
11663;SDS011;72375;59.302;18.204;2024-02-28T01:21:38;3.37;;;2.57;;
11663;SDS011;72375;59.302;18.204;2024-02-28T01:24:25;2.77;;;2.30;;
11663;SDS011;72375;59.302;18.204;2024-02-28T01:27:11;2.90;;;2.57;;
11663;SDS011;72375;59.302;18.204;2024-02-28T01:29:57;3.67;;;3.07;;
11663;SDS011;72375;59.302;18.204;2024-02-28T01:32:42;4.23;;;2.90;;
11663;SDS011;72375;59.302;18.204;2024-02-28T01:35:28;3.57;;;2.70;;
11663;SDS011;72375;59.302;18.204;2024-02-28T01:38:14;3.70;;;2.70;;
11663;SDS011;72375;59.302;18.204;2024-02-28T01:41:01;2.77;;;2.23;;
11663;SDS011;72375;59.302;18.204;2024-02-28T01:43:48;3.30;;;2.70;;
11663;SDS011;72375;59.302;18.204;2024-02-28T01:46:34;3.83;;;2.80;;
11663;SDS011;72375;59.302;18.204;2024-02-28T01:49:19;2.90;;;2.70;;
11663;SDS011;72375;59.302;18.204;2024-02-28T01:52:05;3.13;;;2.60;;
11663;SDS011;72375;59.302;18.204;2024-02-28T01:54:51;2.83;;;2.60;;
11663;SDS011;72375;59.302;18.204;2024-02-28T01:57:38;3.20;;;2.60;;
11663;SDS011;72375;59.302;18.204;2024-02-28T02:00:24;3.40;;;2.80;;
11663;SDS011;72375;59.302;18.204;2024-02-28T02:03:12;3.43;;;2.90;;
11663;SDS011;72375;59.302;18.204;2024-02-28T02:05:58;3.50;;;2.80;;
11663;SDS011;72375;59.302;18.204;2024-02-28T02:08:43;3.30;;;2.80;;
11663;SDS011;72375;59.302;18.204;2024-02-28T02:11:29;3.93;;;2.83;;
11663;SDS011;72375;59.302;18.204;2024-02-28T02:14:16;5.03;;;3.27;;
11663;SDS011;72375;59.302;18.204;2024-02-28T02:17:03;3.30;;;2.70;;
11663;SDS011;72375;59.302;18.204;2024-02-28T02:19:49;3.90;;;3.17;;
11663;SDS011;72375;59.302;18.204;2024-02-28T02:22:36;4.33;;;2.70;;
11663;SDS011;72375;59.302;18.204;2024-02-28T02:25:23;3.70;;;2.90;;
11663;SDS011;72375;59.302;18.204;2024-02-28T02:28:08;4.07;;;3.20;;
11663;SDS011;72375;59.302;18.204;2024-02-28T02:30:54;3.33;;;2.80;;
11663;SDS011;72375;59.302;18.204;2024-02-28T02:33:40;3.90;;;3.03;;
11663;SDS011;72375;59.302;18.204;2024-02-28T02:36:25;4.03;;;3.40;;
11663;SDS011;72375;59.302;18.204;2024-02-28T02:39:13;3.60;;;2.93;;
11663;SDS011;72375;59.302;18.204;2024-02-28T02:41:58;3.53;;;3.20;;
11663;SDS011;72375;59.302;18.204;2024-02-28T02:44:44;3.60;;;3.30;;
11663;SDS011;72375;59.302;18.204;2024-02-28T02:47:30;3.57;;;2.87;;
11663;SDS011;72375;59.302;18.204;2024-02-28T02:50:15;5.33;;;3.20;;
11663;SDS011;72375;59.302;18.204;2024-02-28T02:53:01;3.27;;;2.63;;
11663;SDS011;72375;59.302;18.204;2024-02-28T02:55:48;3.33;;;2.70;;
11663;SDS011;72375;59.302;18.204;2024-02-28T02:58:34;3.00;;;2.70;;
11663;SDS011;72375;59.302;18.204;2024-02-28T03:01:20;4.73;;;3.20;;
11663;SDS011;72375;59.302;18.204;2024-02-28T03:04:05;2.90;;;2.43;;
11663;SDS011;72375;59.302;18.204;2024-02-28T03:06:51;4.50;;;2.87;;
11663;SDS011;72375;59.302;18.204;2024-02-28T03:09:37;3.77;;;2.80;;
11663;SDS011;72375;59.302;18.204;2024-02-28T03:12:23;3.10;;;2.57;;
11663;SDS011;72375;59.302;18.204;2024-02-28T03:15:09;3.70;;;2.63;;
11663;SDS011;72375;59.302;18.204;2024-02-28T03:17:55;2.90;;;2.53;;
11663;SDS011;72375;59.302;18.204;2024-02-28T03:20:41;2.70;;;2.30;;
11663;SDS011;72375;59.302;18.204;2024-02-28T03:23:26;3.27;;;2.53;;
11663;SDS011;72375;59.302;18.204;2024-02-28T03:26:12;3.00;;;2.10;;
11663;SDS011;72375;59.302;18.204;2024-02-28T03:28:59;2.73;;;2.30;;
11663;SDS011;72375;59.302;18.204;2024-02-28T03:31:45;2.57;;;2.23;;
11663;SDS011;72375;59.302;18.204;2024-02-28T03:34:31;2.93;;;2.40;;
11663;SDS011;72375;59.302;18.204;2024-02-28T03:37:17;2.50;;;1.97;;
11663;SDS011;72375;59.302;18.204;2024-02-28T03:40:02;2.33;;;2.10;;
11663;SDS011;72375;59.302;18.204;2024-02-28T03:42:49;1.80;;;1.70;;
11663;SDS011;72375;59.302;18.204;2024-02-28T03:45:37;2.67;;;1.87;;
11663;SDS011;72375;59.302;18.204;2024-02-28T03:48:24;2.37;;;2.17;;
11663;SDS011;72375;59.302;18.204;2024-02-28T03:51:09;2.90;;;2.20;;
11663;SDS011;72375;59.302;18.204;2024-02-28T03:53:55;3.33;;;2.10;;
11663;SDS011;72375;59.302;18.204;2024-02-28T03:56:40;2.17;;;1.97;;
11663;SDS011;72375;59.302;18.204;2024-02-28T03:59:26;2.90;;;2.10;;
11663;SDS011;72375;59.302;18.204;2024-02-28T04:02:13;2.33;;;2.13;;
11663;SDS011;72375;59.302;18.204;2024-02-28T04:04:59;2.37;;;1.83;;
11663;SDS011;72375;59.302;18.204;2024-02-28T04:07:44;2.77;;;2.17;;
11663;SDS011;72375;59.302;18.204;2024-02-28T04:10:30;2.00;;;1.80;;
11663;SDS011;72375;59.302;18.204;2024-02-28T04:13:16;2.23;;;1.90;;
11663;SDS011;72375;59.302;18.204;2024-02-28T04:16:02;2.00;;;1.83;;
11663;SDS011;72375;59.302;18.204;2024-02-28T04:18:49;2.70;;;2.10;;
11663;SDS011;72375;59.302;18.204;2024-02-28T04:21:35;2.73;;;2.20;;
11663;SDS011;72375;59.302;18.204;2024-02-28T04:24:21;2.00;;;1.80;;
11663;SDS011;72375;59.302;18.204;2024-02-28T04:27:07;3.47;;;2.23;;
11663;SDS011;72375;59.302;18.204;2024-02-28T04:29:54;2.50;;;1.90;;
11663;SDS011;72375;59.302;18.204;2024-02-28T04:32:40;2.10;;;1.70;;
11663;SDS011;72375;59.302;18.204;2024-02-28T04:35:27;1.70;;;1.57;;
11663;SDS011;72375;59.302;18.204;2024-02-28T04:38:13;2.10;;;1.80;;
11663;SDS011;72375;59.302;18.204;2024-02-28T04:40:59;1.90;;;1.70;;
11663;SDS011;72375;59.302;18.204;2024-02-28T04:43:45;2.83;;;1.90;;
11663;SDS011;72375;59.302;18.204;2024-02-28T04:46:30;3.07;;;2.17;;
11663;SDS011;72375;59.302;18.204;2024-02-28T04:49:16;2.83;;;2.03;;
11663;SDS011;72375;59.302;18.204;2024-02-28T04:52:03;2.13;;;1.93;;
11663;SDS011;72375;59.302;18.204;2024-02-28T04:54:50;3.97;;;2.13;;
11663;SDS011;72375;59.302;18.204;2024-02-28T04:57:37;2.57;;;1.97;;
11663;SDS011;72375;59.302;18.204;2024-02-28T05:00:22;3.27;;;2.50;;
11663;SDS011;72375;59.302;18.204;2024-02-28T05:03:08;2.17;;;1.97;;
11663;SDS011;72375;59.302;18.204;2024-02-28T05:05:54;2.30;;;2.10;;
11663;SDS011;72375;59.302;18.204;2024-02-28T05:08:41;2.33;;;1.90;;
11663;SDS011;72375;59.302;18.204;2024-02-28T05:11:27;3.30;;;2.10;;
11663;SDS011;72375;59.302;18.204;2024-02-28T05:14:12;2.73;;;2.30;;
11663;SDS011;72375;59.302;18.204;2024-02-28T05:16:58;2.77;;;2.20;;
11663;SDS011;72375;59.302;18.204;2024-02-28T05:19:44;2.47;;;2.27;;
11663;SDS011;72375;59.302;18.204;2024-02-28T05:22:29;2.50;;;2.20;;
11663;SDS011;72375;59.302;18.204;2024-02-28T05:25:16;2.47;;;2.03;;
11663;SDS011;72375;59.302;18.204;2024-02-28T05:28:02;2.30;;;2.10;;
11663;SDS011;72375;59.302;18.204;2024-02-28T05:30:48;2.50;;;2.27;;
11663;SDS011;72375;59.302;18.204;2024-02-28T05:33:34;2.83;;;2.23;;
11663;SDS011;72375;59.302;18.204;2024-02-28T05:36:20;3.60;;;2.27;;
11663;SDS011;72375;59.302;18.204;2024-02-28T05:39:06;2.63;;;2.40;;
11663;SDS011;72375;59.302;18.204;2024-02-28T05:41:53;3.27;;;2.70;;
11663;SDS011;72375;59.302;18.204;2024-02-28T05:44:39;3.43;;;2.60;;
11663;SDS011;72375;59.302;18.204;2024-02-28T05:47:25;2.83;;;2.27;;
11663;SDS011;72375;59.302;18.204;2024-02-28T05:50:11;2.50;;;2.30;;
11663;SDS011;72375;59.302;18.204;2024-02-28T05:52:58;2.87;;;2.60;;
11663;SDS011;72375;59.302;18.204;2024-02-28T05:55:44;2.77;;;2.20;;
11663;SDS011;72375;59.302;18.204;2024-02-28T05:58:31;3.70;;;2.63;;
11663;SDS011;72375;59.302;18.204;2024-02-28T06:01:17;2.90;;;2.50;;
11663;SDS011;72375;59.302;18.204;2024-02-28T06:04:03;2.30;;;2.10;;
11663;SDS011;72375;59.302;18.204;2024-02-28T06:06:49;2.50;;;2.30;;
11663;SDS011;72375;59.302;18.204;2024-02-28T06:09:35;2.20;;;1.90;;
11663;SDS011;72375;59.302;18.204;2024-02-28T06:12:22;3.40;;;2.97;;
11663;SDS011;72375;59.302;18.204;2024-02-28T06:15:09;2.40;;;2.20;;
11663;SDS011;72375;59.302;18.204;2024-02-28T06:17:56;2.70;;;2.07;;
11663;SDS011;72375;59.302;18.204;2024-02-28T06:20:43;2.63;;;2.03;;
11663;SDS011;72375;59.302;18.204;2024-02-28T06:23:29;2.63;;;2.20;;
11663;SDS011;72375;59.302;18.204;2024-02-28T06:26:14;2.40;;;2.20;;
11663;SDS011;72375;59.302;18.204;2024-02-28T06:29:01;2.83;;;2.40;;
11663;SDS011;72375;59.302;18.204;2024-02-28T06:31:51;3.50;;;2.67;;
11663;SDS011;72375;59.302;18.204;2024-02-28T06:34:37;3.70;;;2.40;;
11663;SDS011;72375;59.302;18.204;2024-02-28T06:37:23;2.50;;;2.27;;
11663;SDS011;72375;59.302;18.204;2024-02-28T06:40:08;3.27;;;2.43;;
11663;SDS011;72375;59.302;18.204;2024-02-28T06:42:54;2.60;;;2.37;;
11663;SDS011;72375;59.302;18.204;2024-02-28T06:45:40;2.37;;;2.13;;
11663;SDS011;72375;59.302;18.204;2024-02-28T06:48:27;4.30;;;2.10;;
11663;SDS011;72375;59.302;18.204;2024-02-28T06:51:13;3.27;;;2.40;;
11663;SDS011;72375;59.302;18.204;2024-02-28T06:54:00;3.20;;;2.67;;
11663;SDS011;72375;59.302;18.204;2024-02-28T06:56:46;2.73;;;2.37;;
11663;SDS011;72375;59.302;18.204;2024-02-28T06:59:32;3.33;;;2.40;;
11663;SDS011;72375;59.302;18.204;2024-02-28T07:02:18;3.20;;;2.60;;
11663;SDS011;72375;59.302;18.204;2024-02-28T07:05:05;3.13;;;2.57;;
11663;SDS011;72375;59.302;18.204;2024-02-28T07:07:51;3.63;;;2.60;;
11663;SDS011;72375;59.302;18.204;2024-02-28T07:10:37;2.73;;;2.43;;
11663;SDS011;72375;59.302;18.204;2024-02-28T07:13:26;3.10;;;2.70;;
11663;SDS011;72375;59.302;18.204;2024-02-28T07:16:12;3.70;;;2.60;;
11663;SDS011;72375;59.302;18.204;2024-02-28T07:18:58;3.80;;;2.73;;
11663;SDS011;72375;59.302;18.204;2024-02-28T07:21:44;3.37;;;2.63;;
11663;SDS011;72375;59.302;18.204;2024-02-28T07:24:30;4.07;;;2.20;;
11663;SDS011;72375;59.302;18.204;2024-02-28T07:27:16;2.97;;;2.47;;
11663;SDS011;72375;59.302;18.204;2024-02-28T07:30:02;3.73;;;2.40;;
11663;SDS011;72375;59.302;18.204;2024-02-28T07:32:48;3.17;;;2.40;;
11663;SDS011;72375;59.302;18.204;2024-02-28T07:35:43;2.80;;;2.43;;
11663;SDS011;72375;59.302;18.204;2024-02-28T07:38:30;3.17;;;2.50;;
11663;SDS011;72375;59.302;18.204;2024-02-28T07:41:16;3.13;;;2.43;;
11663;SDS011;72375;59.302;18.204;2024-02-28T07:44:02;2.67;;;2.40;;
11663;SDS011;72375;59.302;18.204;2024-02-28T07:46:47;2.57;;;2.30;;
11663;SDS011;72375;59.302;18.204;2024-02-28T07:49:34;2.87;;;2.13;;
11663;SDS011;72375;59.302;18.204;2024-02-28T07:52:20;3.50;;;2.30;;
11663;SDS011;72375;59.302;18.204;2024-02-28T07:55:07;2.67;;;1.97;;
11663;SDS011;72375;59.302;18.204;2024-02-28T07:57:53;2.80;;;2.00;;
11663;SDS011;72375;59.302;18.204;2024-02-28T08:00:39;3.10;;;2.33;;
11663;SDS011;72375;59.302;18.204;2024-02-28T08:03:25;2.80;;;1.90;;
11663;SDS011;72375;59.302;18.204;2024-02-28T08:06:10;2.53;;;2.03;;
11663;SDS011;72375;59.302;18.204;2024-02-28T08:08:56;2.50;;;2.20;;
11663;SDS011;72375;59.302;18.204;2024-02-28T08:11:43;2.13;;;1.90;;
11663;SDS011;72375;59.302;18.204;2024-02-28T08:14:28;2.50;;;2.23;;
11663;SDS011;72375;59.302;18.204;2024-02-28T08:17:14;2.40;;;2.13;;
11663;SDS011;72375;59.302;18.204;2024-02-28T08:20:00;3.23;;;1.90;;
11663;SDS011;72375;59.302;18.204;2024-02-28T08:22:46;3.40;;;2.00;;
11663;SDS011;72375;59.302;18.204;2024-02-28T08:25:31;3.83;;;2.23;;
11663;SDS011;72375;59.302;18.204;2024-02-28T08:28:18;2.13;;;1.93;;
11663;SDS011;72375;59.302;18.204;2024-02-28T08:31:04;2.13;;;1.80;;
11663;SDS011;72375;59.302;18.204;2024-02-28T08:33:50;3.10;;;2.00;;
11663;SDS011;72375;59.302;18.204;2024-02-28T08:36:36;2.37;;;1.90;;
11663;SDS011;72375;59.302;18.204;2024-02-28T08:39:21;2.30;;;1.73;;
11663;SDS011;72375;59.302;18.204;2024-02-28T08:42:07;2.40;;;1.93;;
11663;SDS011;72375;59.302;18.204;2024-02-28T08:44:54;2.70;;;2.00;;
11663;SDS011;72375;59.302;18.204;2024-02-28T08:47:40;2.10;;;1.70;;
11663;SDS011;72375;59.302;18.204;2024-02-28T08:50:26;1.80;;;1.70;;
11663;SDS011;72375;59.302;18.204;2024-02-28T08:53:12;3.57;;;1.90;;
11663;SDS011;72375;59.302;18.204;2024-02-28T08:55:58;2.23;;;2.00;;
11663;SDS011;72375;59.302;18.204;2024-02-28T08:58:44;2.77;;;1.80;;
11663;SDS011;72375;59.302;18.204;2024-02-28T09:01:31;2.00;;;1.80;;
11663;SDS011;72375;59.302;18.204;2024-02-28T09:04:17;2.50;;;1.80;;
11663;SDS011;72375;59.302;18.204;2024-02-28T09:07:03;2.80;;;1.80;;
11663;SDS011;72375;59.302;18.204;2024-02-28T09:09:48;2.00;;;1.60;;
11663;SDS011;72375;59.302;18.204;2024-02-28T09:12:34;1.97;;;1.50;;
11663;SDS011;72375;59.302;18.204;2024-02-28T09:15:20;2.33;;;1.90;;
11663;SDS011;72375;59.302;18.204;2024-02-28T09:18:07;2.10;;;1.80;;
11663;SDS011;72375;59.302;18.204;2024-02-28T09:20:53;2.73;;;1.97;;
11663;SDS011;72375;59.302;18.204;2024-02-28T09:23:39;3.00;;;1.83;;
11663;SDS011;72375;59.302;18.204;2024-02-28T09:26:25;2.03;;;1.80;;
11663;SDS011;72375;59.302;18.204;2024-02-28T09:29:10;2.60;;;1.93;;
11663;SDS011;72375;59.302;18.204;2024-02-28T09:31:56;1.73;;;1.50;;
11663;SDS011;72375;59.302;18.204;2024-02-28T09:34:43;1.70;;;1.60;;
11663;SDS011;72375;59.302;18.204;2024-02-28T09:37:29;2.30;;;1.60;;
11663;SDS011;72375;59.302;18.204;2024-02-28T09:40:15;2.30;;;1.63;;
11663;SDS011;72375;59.302;18.204;2024-02-28T09:43:02;2.63;;;1.67;;
11663;SDS011;72375;59.302;18.204;2024-02-28T09:45:48;3.03;;;1.60;;
11663;SDS011;72375;59.302;18.204;2024-02-28T09:48:34;2.47;;;1.60;;
11663;SDS011;72375;59.302;18.204;2024-02-28T09:51:21;2.43;;;1.70;;
11663;SDS011;72375;59.302;18.204;2024-02-28T09:54:08;2.00;;;1.80;;
11663;SDS011;72375;59.302;18.204;2024-02-28T09:56:53;2.87;;;1.83;;
11663;SDS011;72375;59.302;18.204;2024-02-28T09:59:40;2.20;;;1.57;;
11663;SDS011;72375;59.302;18.204;2024-02-28T10:02:26;2.27;;;1.50;;
11663;SDS011;72375;59.302;18.204;2024-02-28T10:05:12;1.80;;;1.40;;
11663;SDS011;72375;59.302;18.204;2024-02-28T10:08:00;2.03;;;1.70;;
11663;SDS011;72375;59.302;18.204;2024-02-28T10:10:46;2.10;;;1.70;;
11663;SDS011;72375;59.302;18.204;2024-02-28T10:13:31;2.37;;;1.87;;
11663;SDS011;72375;59.302;18.204;2024-02-28T10:16:17;1.90;;;1.60;;
11663;SDS011;72375;59.302;18.204;2024-02-28T10:19:04;2.00;;;1.50;;
11663;SDS011;72375;59.302;18.204;2024-02-28T10:21:50;3.07;;;2.00;;
11663;SDS011;72375;59.302;18.204;2024-02-28T10:24:37;2.33;;;1.70;;
11663;SDS011;72375;59.302;18.204;2024-02-28T10:27:23;2.40;;;2.20;;
11663;SDS011;72375;59.302;18.204;2024-02-28T10:30:08;2.47;;;1.40;;
11663;SDS011;72375;59.302;18.204;2024-02-28T10:32:55;2.50;;;1.80;;
11663;SDS011;72375;59.302;18.204;2024-02-28T10:35:40;3.10;;;1.87;;
11663;SDS011;72375;59.302;18.204;2024-02-28T10:38:27;2.43;;;1.90;;
11663;SDS011;72375;59.302;18.204;2024-02-28T10:41:14;2.13;;;1.93;;
11663;SDS011;72375;59.302;18.204;2024-02-28T10:44:01;2.23;;;2.03;;
11663;SDS011;72375;59.302;18.204;2024-02-28T10:46:48;6.03;;;1.80;;
11663;SDS011;72375;59.302;18.204;2024-02-28T10:49:35;2.43;;;1.87;;
11663;SDS011;72375;59.302;18.204;2024-02-28T10:52:21;2.90;;;1.87;;
11663;SDS011;72375;59.302;18.204;2024-02-28T10:55:07;2.37;;;2.00;;
11663;SDS011;72375;59.302;18.204;2024-02-28T10:58:02;2.00;;;1.80;;
11663;SDS011;72375;59.302;18.204;2024-02-28T11:00:51;2.80;;;2.13;;
11663;SDS011;72375;59.302;18.204;2024-02-28T11:03:37;2.00;;;1.80;;
11663;SDS011;72375;59.302;18.204;2024-02-28T11:06:23;3.33;;;2.33;;
11663;SDS011;72375;59.302;18.204;2024-02-28T11:09:09;2.37;;;1.67;;
11663;SDS011;72375;59.302;18.204;2024-02-28T11:11:57;2.63;;;1.77;;
11663;SDS011;72375;59.302;18.204;2024-02-28T11:14:55;1.70;;;1.60;;
11663;SDS011;72375;59.302;18.204;2024-02-28T11:17:42;2.10;;;1.80;;
11663;SDS011;72375;59.302;18.204;2024-02-28T11:20:31;1.73;;;1.63;;
11663;SDS011;72375;59.302;18.204;2024-02-28T11:23:17;4.37;;;2.00;;
11663;SDS011;72375;59.302;18.204;2024-02-28T11:26:03;2.87;;;2.10;;
11663;SDS011;72375;59.302;18.204;2024-02-28T11:28:48;2.10;;;1.90;;
11663;SDS011;72375;59.302;18.204;2024-02-28T11:31:35;1.93;;;1.73;;
11663;SDS011;72375;59.302;18.204;2024-02-28T11:34:21;1.90;;;1.50;;
11663;SDS011;72375;59.302;18.204;2024-02-28T11:37:07;3.23;;;1.60;;
11663;SDS011;72375;59.302;18.204;2024-02-28T11:39:54;3.23;;;1.70;;
11663;SDS011;72375;59.302;18.204;2024-02-28T11:42:39;2.40;;;1.73;;
11663;SDS011;72375;59.302;18.204;2024-02-28T11:45:25;2.50;;;1.53;;
11663;SDS011;72375;59.302;18.204;2024-02-28T11:48:12;2.10;;;1.60;;
11663;SDS011;72375;59.302;18.204;2024-02-28T11:50:58;3.33;;;1.70;;
11663;SDS011;72375;59.302;18.204;2024-02-28T11:53:43;2.23;;;1.60;;
11663;SDS011;72375;59.302;18.204;2024-02-28T11:56:29;2.27;;;1.63;;
11663;SDS011;72375;59.302;18.204;2024-02-28T11:59:14;2.57;;;1.73;;
11663;SDS011;72375;59.302;18.204;2024-02-28T12:02:00;2.20;;;1.80;;
11663;SDS011;72375;59.302;18.204;2024-02-28T12:04:47;1.60;;;1.50;;
11663;SDS011;72375;59.302;18.204;2024-02-28T12:07:34;3.17;;;1.83;;
11663;SDS011;72375;59.302;18.204;2024-02-28T12:10:19;2.97;;;1.70;;
11663;SDS011;72375;59.302;18.204;2024-02-28T12:13:06;2.20;;;2.00;;
11663;SDS011;72375;59.302;18.204;2024-02-28T12:15:53;2.87;;;2.10;;
11663;SDS011;72375;59.302;18.204;2024-02-28T12:18:40;2.73;;;1.93;;
11663;SDS011;72375;59.302;18.204;2024-02-28T12:21:27;2.27;;;2.07;;
11663;SDS011;72375;59.302;18.204;2024-02-28T12:24:13;2.37;;;1.77;;
11663;SDS011;72375;59.302;18.204;2024-02-28T12:26:58;3.80;;;2.00;;
11663;SDS011;72375;59.302;18.204;2024-02-28T12:29:44;1.77;;;1.67;;
11663;SDS011;72375;59.302;18.204;2024-02-28T12:32:30;2.63;;;1.70;;
11663;SDS011;72375;59.302;18.204;2024-02-28T12:35:15;3.30;;;2.27;;
11663;SDS011;72375;59.302;18.204;2024-02-28T12:38:02;2.17;;;1.97;;
11663;SDS011;72375;59.302;18.204;2024-02-28T12:40:48;1.97;;;1.87;;
11663;SDS011;72375;59.302;18.204;2024-02-28T12:43:34;2.40;;;2.03;;
11663;SDS011;72375;59.302;18.204;2024-02-28T12:46:20;4.47;;;2.20;;
11663;SDS011;72375;59.302;18.204;2024-02-28T12:49:06;2.80;;;2.10;;
11663;SDS011;72375;59.302;18.204;2024-02-28T12:51:53;4.10;;;2.00;;
11663;SDS011;72375;59.302;18.204;2024-02-28T12:54:40;2.20;;;2.00;;
11663;SDS011;72375;59.302;18.204;2024-02-28T12:57:26;2.67;;;2.00;;
11663;SDS011;72375;59.302;18.204;2024-02-28T13:00:12;1.90;;;1.80;;
11663;SDS011;72375;59.302;18.204;2024-02-28T13:02:57;2.77;;;1.90;;
11663;SDS011;72375;59.302;18.204;2024-02-28T13:05:43;2.87;;;1.90;;
11663;SDS011;72375;59.302;18.204;2024-02-28T13:08:29;3.03;;;1.87;;
11663;SDS011;72375;59.302;18.204;2024-02-28T13:11:16;2.10;;;1.50;;
11663;SDS011;72375;59.302;18.204;2024-02-28T13:14:03;2.50;;;2.20;;
11663;SDS011;72375;59.302;18.204;2024-02-28T13:16:49;2.73;;;1.90;;
11663;SDS011;72375;59.302;18.204;2024-02-28T13:19:36;2.50;;;2.07;;
11663;SDS011;72375;59.302;18.204;2024-02-28T13:22:22;2.10;;;1.80;;
11663;SDS011;72375;59.302;18.204;2024-02-28T13:25:08;2.33;;;1.90;;
11663;SDS011;72375;59.302;18.204;2024-02-28T13:27:55;2.30;;;2.07;;
11663;SDS011;72375;59.302;18.204;2024-02-28T13:30:41;2.10;;;1.87;;
11663;SDS011;72375;59.302;18.204;2024-02-28T13:33:27;3.43;;;1.97;;
11663;SDS011;72375;59.302;18.204;2024-02-28T13:36:12;4.10;;;2.00;;
11663;SDS011;72375;59.302;18.204;2024-02-28T13:38:58;3.63;;;2.10;;
11663;SDS011;72375;59.302;18.204;2024-02-28T13:41:43;3.63;;;2.17;;
11663;SDS011;72375;59.302;18.204;2024-02-28T13:44:31;2.83;;;1.87;;
11663;SDS011;72375;59.302;18.204;2024-02-28T13:47:16;2.13;;;1.90;;
11663;SDS011;72375;59.302;18.204;2024-02-28T13:50:02;3.43;;;2.13;;
11663;SDS011;72375;59.302;18.204;2024-02-28T13:52:48;2.00;;;1.80;;
11663;SDS011;72375;59.302;18.204;2024-02-28T13:55:34;2.07;;;1.87;;
11663;SDS011;72375;59.302;18.204;2024-02-28T13:58:19;2.47;;;1.80;;
11663;SDS011;72375;59.302;18.204;2024-02-28T14:01:06;2.50;;;1.97;;
11663;SDS011;72375;59.302;18.204;2024-02-28T14:03:52;2.07;;;1.80;;
11663;SDS011;72375;59.302;18.204;2024-02-28T14:06:39;3.00;;;1.70;;
11663;SDS011;72375;59.302;18.204;2024-02-28T14:09:24;2.47;;;1.90;;
11663;SDS011;72375;59.302;18.204;2024-02-28T14:12:10;2.07;;;1.83;;
11663;SDS011;72375;59.302;18.204;2024-02-28T14:14:56;1.60;;;1.50;;
11663;SDS011;72375;59.302;18.204;2024-02-28T14:17:43;3.97;;;1.47;;
11663;SDS011;72375;59.302;18.204;2024-02-28T14:20:28;2.60;;;1.77;;
11663;SDS011;72375;59.302;18.204;2024-02-28T14:23:14;2.50;;;1.70;;
11663;SDS011;72375;59.302;18.204;2024-02-28T14:26:01;1.53;;;1.30;;
11663;SDS011;72375;59.302;18.204;2024-02-28T14:28:47;1.53;;;1.40;;
11663;SDS011;72375;59.302;18.204;2024-02-28T14:31:33;1.53;;;1.43;;
11663;SDS011;72375;59.302;18.204;2024-02-28T14:34:20;2.07;;;1.23;;
11663;SDS011;72375;59.302;18.204;2024-02-28T14:37:05;2.03;;;1.40;;
11663;SDS011;72375;59.302;18.204;2024-02-28T14:39:51;1.93;;;1.63;;
11663;SDS011;72375;59.302;18.204;2024-02-28T14:42:37;1.27;;;1.17;;
11663;SDS011;72375;59.302;18.204;2024-02-28T14:45:23;1.70;;;1.40;;
11663;SDS011;72375;59.302;18.204;2024-02-28T14:48:12;3.13;;;1.57;;
11663;SDS011;72375;59.302;18.204;2024-02-28T14:50:59;1.47;;;1.33;;
11663;SDS011;72375;59.302;18.204;2024-02-28T14:53:46;3.03;;;1.50;;
11663;SDS011;72375;59.302;18.204;2024-02-28T14:56:31;2.37;;;1.70;;
11663;SDS011;72375;59.302;18.204;2024-02-28T14:59:17;2.93;;;1.73;;
11663;SDS011;72375;59.302;18.204;2024-02-28T15:02:03;2.33;;;2.00;;
11663;SDS011;72375;59.302;18.204;2024-02-28T15:04:48;2.07;;;1.70;;
11663;SDS011;72375;59.302;18.204;2024-02-28T15:07:35;2.03;;;1.70;;
11663;SDS011;72375;59.302;18.204;2024-02-28T15:10:22;1.90;;;1.70;;
11663;SDS011;72375;59.302;18.204;2024-02-28T15:13:08;2.03;;;1.50;;
11663;SDS011;72375;59.302;18.204;2024-02-28T15:15:54;2.53;;;1.67;;
11663;SDS011;72375;59.302;18.204;2024-02-28T15:18:40;1.60;;;1.50;;
11663;SDS011;72375;59.302;18.204;2024-02-28T15:21:25;6.90;;;2.13;;
11663;SDS011;72375;59.302;18.204;2024-02-28T15:24:12;1.40;;;1.30;;
11663;SDS011;72375;59.302;18.204;2024-02-28T15:27:00;2.00;;;1.50;;
11663;SDS011;72375;59.302;18.204;2024-02-28T15:29:45;3.67;;;1.30;;
11663;SDS011;72375;59.302;18.204;2024-02-28T15:32:31;1.67;;;1.50;;
11663;SDS011;72375;59.302;18.204;2024-02-28T15:35:17;2.23;;;1.40;;
11663;SDS011;72375;59.302;18.204;2024-02-28T15:38:04;1.43;;;1.30;;
11663;SDS011;72375;59.302;18.204;2024-02-28T15:40:51;1.90;;;1.50;;
11663;SDS011;72375;59.302;18.204;2024-02-28T15:43:37;1.90;;;1.60;;
11663;SDS011;72375;59.302;18.204;2024-02-28T15:46:23;1.50;;;1.40;;
11663;SDS011;72375;59.302;18.204;2024-02-28T15:49:09;3.90;;;1.40;;
11663;SDS011;72375;59.302;18.204;2024-02-28T15:51:54;1.77;;;1.50;;
11663;SDS011;72375;59.302;18.204;2024-02-28T15:54:40;2.53;;;1.77;;
11663;SDS011;72375;59.302;18.204;2024-02-28T15:57:27;3.77;;;1.77;;
11663;SDS011;72375;59.302;18.204;2024-02-28T16:00:13;3.77;;;2.20;;
11663;SDS011;72375;59.302;18.204;2024-02-28T16:02:59;2.90;;;2.30;;
11663;SDS011;72375;59.302;18.204;2024-02-28T16:05:45;2.30;;;2.10;;
11663;SDS011;72375;59.302;18.204;2024-02-28T16:08:31;3.43;;;2.60;;
11663;SDS011;72375;59.302;18.204;2024-02-28T16:11:16;4.20;;;2.23;;
11663;SDS011;72375;59.302;18.204;2024-02-28T16:14:03;2.83;;;2.40;;
11663;SDS011;72375;59.302;18.204;2024-02-28T16:16:49;2.20;;;2.00;;
11663;SDS011;72375;59.302;18.204;2024-02-28T16:19:34;2.43;;;1.90;;
11663;SDS011;72375;59.302;18.204;2024-02-28T16:22:20;2.30;;;2.10;;
11663;SDS011;72375;59.302;18.204;2024-02-28T16:25:06;2.80;;;1.93;;